createdAt,value
2022-07-25T00:01:18.166Z,21.46
2022-07-25T00:06:24.055Z,21.35
2022-07-25T00:11:27.617Z,21.21
2022-07-25T00:16:31.227Z,21.22
2022-07-25T00:21:34.072Z,21.15
2022-07-25T00:26:40.279Z,21.10
2022-07-25T00:31:44.169Z,20.95
2022-07-25T00:36:47.295Z,21.00
2022-07-25T00:41:50.894Z,21.08
2022-07-25T00:46:53.769Z,20.91
2022-07-25T00:51:57.325Z,20.85
2022-07-25T00:57:00.909Z,20.84
2022-07-25T01:02:05.715Z,20.76
2022-07-25T01:07:09.281Z,20.59
2022-07-25T01:12:13.279Z,20.56
2022-07-25T01:17:19.512Z,20.45
2022-07-25T01:22:42.231Z,20.45
2022-07-25T01:27:55.730Z,20.42
2022-07-25T01:33:08.210Z,20.36
2022-07-25T01:38:12.135Z,20.31
2022-07-25T01:43:15.859Z,20.26
2022-07-25T01:48:19.935Z,20.26
2022-07-25T01:53:23.107Z,20.24
2022-07-25T01:58:27.380Z,20.24
2022-07-25T02:03:33.863Z,20.13
2022-07-25T02:08:38.006Z,20.02
2022-07-25T02:13:41.057Z,20.04
2022-07-25T02:18:43.891Z,20.04
2022-07-25T02:23:47.446Z,19.94
2022-07-25T02:28:50.258Z,19.98
2022-07-25T02:33:53.735Z,19.88
2022-07-25T02:38:57.785Z,19.87
2022-07-25T02:44:01.015Z,19.81
2022-07-25T02:49:04.284Z,19.74
2022-07-25T02:54:07.710Z,19.69
2022-07-25T02:59:10.513Z,19.69
2022-07-25T03:04:13.810Z,19.70
2022-07-25T03:09:19.144Z,19.64
2022-07-25T03:14:21.971Z,19.66
2022-07-25T03:19:25.541Z,19.61
2022-07-25T03:24:28.361Z,19.52
2022-07-25T03:29:31.132Z,19.50
2022-07-25T03:34:34.512Z,19.52
2022-07-25T03:39:37.592Z,19.53
2022-07-25T03:44:40.902Z,19.61
2022-07-25T03:49:44.858Z,19.73
2022-07-25T03:54:48.008Z,19.77
2022-07-25T03:59:51.386Z,19.85
2022-07-25T04:04:54.551Z,20.05
2022-07-25T04:09:57.664Z,20.13
2022-07-25T04:15:01.186Z,20.36
2022-07-25T04:20:04.477Z,20.56
2022-07-25T04:25:09.801Z,20.76
2022-07-25T04:30:12.984Z,21.04
2022-07-25T04:35:27.195Z,21.29
2022-07-25T04:40:30.545Z,21.52
2022-07-25T04:45:35.124Z,21.86
2022-07-25T04:50:38.577Z,22.09
2022-07-25T04:55:42.021Z,22.29
2022-07-25T05:00:45.246Z,22.47
2022-07-25T05:05:49.349Z,22.81
2022-07-25T05:10:53.285Z,23.00
2022-07-25T05:15:57.346Z,23.36
2022-07-25T05:21:00.452Z,23.56
2022-07-25T05:26:03.676Z,23.55
2022-07-25T05:31:06.530Z,23.88
2022-07-25T05:36:09.995Z,24.04
2022-07-25T05:41:13.226Z,24.41
2022-07-25T05:46:16.447Z,25.02
2022-07-25T05:51:19.753Z,25.04
2022-07-25T05:56:22.511Z,25.21
2022-07-25T06:01:25.749Z,25.69
2022-07-25T06:06:29.054Z,25.68
2022-07-25T06:11:32.233Z,25.88
2022-07-25T06:16:35.545Z,26.05
2022-07-25T06:21:39.186Z,26.38
2022-07-25T06:26:42.139Z,26.66
2022-07-25T06:31:46.422Z,26.58
2022-07-25T06:36:50.326Z,26.82
2022-07-25T06:41:53.513Z,27.01
2022-07-25T06:46:56.406Z,27.39
2022-07-25T06:51:59.573Z,27.44
2022-07-25T06:57:02.810Z,27.62
2022-07-25T07:02:06.105Z,27.91
2022-07-25T07:07:10.031Z,28.18
2022-07-25T07:12:13.378Z,28.29
2022-07-25T07:17:16.732Z,28.37
2022-07-25T07:22:20.804Z,28.79
2022-07-25T07:27:25.952Z,29.04
2022-07-25T07:32:29.671Z,29.10
2022-07-25T07:37:37.577Z,29.38
2022-07-25T07:42:43.760Z,29.65
2022-07-25T07:47:48.718Z,29.54
2022-07-25T07:52:52.462Z,29.67
2022-07-25T07:57:56.439Z,29.74
2022-07-25T08:03:00.335Z,30.04
2022-07-25T08:08:04.092Z,29.58
2022-07-25T08:13:08.129Z,29.65
2022-07-25T08:18:17.066Z,29.99
2022-07-25T08:23:21.396Z,30.29
2022-07-25T08:28:24.690Z,30.17
2022-07-25T08:33:28.842Z,30.03
2022-07-25T08:38:32.137Z,30.46
2022-07-25T08:43:37.121Z,30.63
2022-07-25T08:48:40.479Z,31.09
2022-07-25T08:53:48.503Z,31.27
2022-07-25T08:58:52.884Z,30.86
2022-07-25T09:03:56.627Z,31.13
2022-07-25T09:09:00.627Z,31.40
2022-07-25T09:14:05.266Z,31.70
2022-07-25T09:19:11.165Z,31.37
2022-07-25T09:24:16.237Z,31.54
2022-07-25T09:29:19.833Z,31.64
2022-07-25T09:34:25.599Z,31.85
2022-07-25T09:39:29.008Z,31.76
2022-07-25T09:44:32.801Z,31.77
2022-07-25T09:49:36.524Z,31.92
2022-07-25T09:54:41.096Z,31.70
2022-07-25T09:59:46.191Z,31.65
2022-07-25T10:04:49.875Z,31.96
2022-07-25T10:09:53.487Z,31.73
2022-07-25T10:14:57.407Z,32.15
2022-07-25T10:20:02.175Z,32.22
2022-07-25T10:25:05.833Z,32.21
2022-07-25T10:30:09.617Z,32.51
2022-07-25T10:35:12.860Z,32.41
2022-07-25T10:40:16.599Z,32.40
2022-07-25T10:45:20.297Z,32.82
2022-07-25T10:50:40.460Z,33.08
2022-07-25T10:56:04.889Z,33.84
2022-07-25T11:01:09.517Z,34.73
2022-07-25T11:06:12.963Z,35.26
2022-07-25T11:11:16.322Z,35.33
2022-07-25T11:16:19.152Z,35.45
2022-07-25T11:21:22.418Z,35.47
2022-07-25T11:26:25.282Z,35.35
2022-07-25T11:31:30.439Z,35.32
2022-07-25T11:36:33.806Z,34.56
2022-07-25T11:41:37.924Z,34.39
2022-07-25T11:46:40.709Z,33.91
2022-07-25T11:51:43.600Z,33.87
2022-07-25T11:56:47.694Z,34.02
2022-07-25T12:01:51.079Z,33.89
2022-07-25T12:06:53.960Z,34.03
2022-07-25T12:11:57.521Z,34.17
2022-07-25T12:17:00.521Z,34.31
2022-07-25T12:22:03.851Z,34.21
2022-07-25T12:27:06.875Z,34.16
2022-07-25T12:32:10.676Z,34.52
2022-07-25T12:37:13.574Z,34.28
2022-07-25T12:42:17.273Z,34.37
2022-07-25T12:47:21.162Z,34.27
2022-07-25T12:52:24.520Z,34.23
2022-07-25T12:57:27.374Z,34.31
2022-07-25T13:02:30.218Z,34.12
2022-07-25T13:07:33.571Z,34.72
2022-07-25T13:12:37.086Z,34.91
2022-07-25T13:17:40.916Z,34.66
2022-07-25T13:22:44.205Z,34.41
2022-07-25T13:27:47.351Z,34.52
2022-07-25T13:32:50.669Z,34.80
2022-07-25T13:37:54.199Z,35.07
2022-07-25T13:42:57.832Z,35.28
2022-07-25T13:48:27.785Z,35.41
2022-07-25T13:53:29.465Z,35.19
2022-07-25T13:58:32.943Z,35.51
2022-07-25T14:03:36.884Z,35.20
2022-07-25T14:08:40.003Z,35.03
2022-07-25T14:13:43.672Z,35.26
2022-07-25T14:18:46.678Z,34.96
2022-07-25T14:23:49.509Z,34.67
2022-07-25T14:28:52.337Z,34.67
2022-07-25T14:33:55.137Z,34.86
2022-07-25T14:38:58.301Z,34.98
2022-07-25T14:44:04.681Z,35.08
2022-07-25T14:49:08.806Z,35.00
2022-07-25T14:54:12.058Z,35.19
2022-07-25T14:59:15.278Z,35.20
2022-07-25T15:04:19.872Z,35.05
2022-07-25T15:09:22.750Z,35.03
2022-07-25T15:14:26.389Z,35.00
2022-07-25T15:19:29.331Z,34.89
2022-07-25T15:24:49.495Z,34.81
2022-07-25T15:29:56.039Z,35.22
2022-07-25T15:34:59.372Z,35.15
2022-07-25T15:40:03.671Z,34.91
2022-07-25T15:45:32.027Z,34.90
2022-07-25T15:50:30.480Z,34.83
2022-07-25T15:55:34.443Z,34.68
2022-07-25T16:00:37.940Z,34.72
2022-07-25T16:05:41.106Z,34.52
2022-07-25T16:10:44.377Z,34.20
2022-07-25T16:15:48.406Z,34.06
2022-07-25T16:20:51.768Z,34.08
2022-07-25T16:25:55.322Z,34.08
2022-07-25T16:30:58.153Z,33.75
2022-07-25T16:36:01.679Z,33.70
2022-07-25T16:41:05.041Z,33.44
2022-07-25T16:46:09.100Z,33.45
2022-07-25T16:51:12.862Z,33.29
2022-07-25T16:56:16.178Z,33.23
2022-07-25T17:01:19.582Z,33.12
2022-07-25T17:06:22.945Z,32.97
2022-07-25T17:11:26.868Z,32.94
2022-07-25T17:16:30.321Z,32.72
2022-07-25T17:21:33.663Z,32.61
2022-07-25T17:26:36.991Z,32.77
2022-07-25T17:31:40.681Z,32.74
2022-07-25T17:36:43.900Z,32.58
2022-07-25T17:41:48.245Z,32.57
2022-07-25T17:46:52.209Z,32.66
2022-07-25T17:51:55.572Z,32.65
2022-07-25T17:56:59.582Z,32.49
2022-07-25T18:02:02.874Z,32.45
2022-07-25T18:07:05.946Z,32.14
2022-07-25T18:12:09.120Z,31.68
2022-07-25T18:17:11.878Z,30.61
2022-07-25T18:22:15.205Z,30.22
2022-07-25T18:27:18.203Z,29.70
2022-07-25T18:32:21.295Z,29.35
2022-07-25T18:37:24.626Z,29.17
2022-07-25T18:42:30.091Z,28.95
2022-07-25T18:47:35.296Z,28.62
2022-07-25T18:52:38.381Z,28.45
2022-07-25T18:57:41.525Z,28.29
2022-07-25T19:02:44.708Z,28.11
2022-07-25T19:07:48.041Z,27.90
2022-07-25T19:12:52.021Z,27.69
2022-07-25T19:17:56.067Z,27.59
2022-07-25T19:22:58.892Z,27.46
2022-07-25T19:28:02.858Z,27.40
2022-07-25T19:33:06.147Z,27.32
2022-07-25T19:38:09.243Z,27.28
2022-07-25T19:43:15.698Z,27.26
2022-07-25T19:48:19.005Z,27.25
2022-07-25T19:53:25.461Z,27.16
2022-07-25T19:58:34.208Z,27.12
2022-07-25T20:03:41.041Z,26.99
2022-07-25T20:08:44.146Z,27.11
2022-07-25T20:13:47.283Z,26.93
2022-07-25T20:18:53.893Z,26.94
2022-07-25T20:23:58.084Z,26.45
2022-07-25T20:29:00.876Z,25.56
2022-07-25T20:34:04.256Z,24.62
2022-07-25T20:39:07.883Z,24.35
2022-07-25T20:44:12.665Z,24.12
2022-07-25T20:49:16.557Z,23.38
2022-07-25T20:54:20.681Z,23.03
2022-07-25T20:59:23.991Z,23.08
2022-07-25T21:04:28.591Z,23.20
2022-07-25T21:09:32.819Z,23.31
2022-07-25T21:14:36.303Z,23.06
2022-07-25T21:19:39.514Z,22.41
2022-07-25T21:24:43.665Z,21.75
2022-07-25T21:29:47.031Z,21.67
2022-07-25T21:34:50.841Z,21.04
2022-07-25T21:39:54.503Z,20.70
2022-07-25T21:44:58.150Z,20.42
2022-07-25T21:50:24.150Z,20.36
2022-07-25T21:55:28.709Z,20.16
2022-07-25T22:00:33.466Z,20.03
2022-07-25T22:05:38.267Z,20.01
2022-07-25T22:10:42.880Z,19.94
2022-07-25T22:15:46.589Z,19.54
2022-07-25T22:20:50.255Z,19.35
2022-07-25T22:25:54.225Z,19.08
2022-07-25T22:30:57.892Z,19.14
2022-07-25T22:36:01.197Z,19.19
2022-07-25T22:41:05.125Z,19.08
2022-07-25T22:46:08.750Z,19.14
2022-07-25T22:51:12.189Z,19.14
2022-07-25T22:56:16.128Z,19.10
2022-07-25T23:01:19.721Z,19.03
2022-07-25T23:06:23.723Z,19.05
2022-07-25T23:11:27.937Z,19.03
2022-07-25T23:16:31.933Z,18.93
2022-07-25T23:21:36.038Z,18.90
2022-07-25T23:26:39.898Z,18.77
2022-07-25T23:31:43.644Z,18.74
2022-07-25T23:36:46.928Z,18.46
2022-07-25T23:41:50.158Z,18.16
2022-07-25T23:46:54.378Z,18.16
2022-07-25T23:51:58.373Z,18.22
2022-07-25T23:57:01.658Z,18.50
